»·PEaware :: N734UG L52-L88

N734UG :: L52-L88

FLIGHT INFORMATION

Flight Status: Arrived
Operator: Privately registered:
United States
More flights under this callsign
Pilot: Dakota F. (17727)
Aircraft: CESSNA 172 SKYHAWK
(C172)
More flights by this aircraft type
Origin: L52 Oceano Co
United States
Destination: L88 New Cuyama
United States
More flights between these airports :: More routes between these airports
Route: DCT
File this flight plan on PilotEdge
Remarks:
Altitude:
(Current/Filed)
7,500ft
Speed:
(Current/Filed)
125kts
Departed: 29-Dec-17 05:48 PM
Arrived: 29-Dec-17 06:21 PM
Distance/Time
Traveled:
47nm/0:33
Distance/Time
To Go:
Arrived

Flight Plot

Page will automatically refresh every two minutes.


Map Options




Map Legend


Flown Route
Filed Route
Departure Airport
Arrival Airport
Navaid (VOR, NDB)
Fix

Horizontal Profiles

Position Reports

Time Latitude Longitude Heading Altitude Ground
Speed
29-Dec-17 17:29 35.103497 -120.624070 34 17ft 0kts
29-Dec-17 17:30 35.103497 -120.624070 34 17ft 0kts
29-Dec-17 17:31 35.103497 -120.624070 34 17ft 0kts
29-Dec-17 17:32 35.103497 -120.624070 34 17ft 0kts
29-Dec-17 17:33 35.103497 -120.624070 34 17ft 0kts
29-Dec-17 17:34 35.103497 -120.624070 34 17ft 0kts
29-Dec-17 17:35 35.103497 -120.624070 34 17ft 0kts
29-Dec-17 17:36 35.103497 -120.624070 34 17ft 0kts
29-Dec-17 17:37 35.103497 -120.624070 34 17ft 0kts
29-Dec-17 17:38 35.103497 -120.624070 34 17ft 0kts
29-Dec-17 17:39 35.103500 -120.624068 34 17ft 0kts
29-Dec-17 17:40 35.103505 -120.624064 34 17ft 0kts
29-Dec-17 17:41 35.103509 -120.624061 34 17ft 0kts
29-Dec-17 17:42 35.103509 -120.624060 34 17ft 0kts
29-Dec-17 17:43 35.103511 -120.624059 34 17ft 0kts
29-Dec-17 17:44 35.103512 -120.624058 34 17ft 0kts
29-Dec-17 17:45 35.103514 -120.624056 34 17ft 0kts
29-Dec-17 17:46 35.103515 -120.624055 34 17ft 0kts
29-Dec-17 17:47 35.102553 -120.623094 129 17ft 11kts
29-Dec-17 17:48 35.101315 -120.622866 145 17ft 4kts
29-Dec-17 17:49 35.099432 -120.619678 157 17ft 9kts
29-Dec-17 17:50 35.099339 -120.619226 39 17ft 0kts
29-Dec-17 17:51 35.099341 -120.619224 39 17ft 0kts
29-Dec-17 17:52 35.099342 -120.619223 39 17ft 0kts
29-Dec-17 17:53 35.099343 -120.619222 39 17ft 0kts
29-Dec-17 17:54 35.102817 -120.624830 300 198ft 61kts
29-Dec-17 17:55 35.116802 -120.636282 17 597ft 97kts
29-Dec-17 17:56 35.113355 -120.614081 126 1257ft 74kts
29-Dec-17 17:57 35.104145 -120.592752 113 1885ft 77kts
29-Dec-17 17:58 35.097603 -120.568668 105 2848ft 76kts
29-Dec-17 17:59 35.093765 -120.543930 94 3698ft 79kts
29-Dec-17 18:00 35.091532 -120.517963 101 4579ft 71kts
29-Dec-17 18:01 35.084629 -120.497106 118 5381ft 67kts
29-Dec-17 18:02 35.078533 -120.476222 107 6118ft 69kts
29-Dec-17 18:03 35.073648 -120.452925 107 6828ft 70kts
29-Dec-17 18:04 35.067956 -120.427973 107 7352ft 95kts
29-Dec-17 18:05 35.060479 -120.390082 104 7471ft 125kts
29-Dec-17 18:06 35.054481 -120.346805 100 7457ft 128kts
29-Dec-17 18:07 35.047721 -120.304678 104 7405ft 122kts
29-Dec-17 18:08 35.040735 -120.265256 104 7541ft 115kts
29-Dec-17 18:09 35.034709 -120.228062 104 7522ft 107kts
29-Dec-17 18:10 35.028872 -120.189669 99 7565ft 128kts
29-Dec-17 18:11 35.023777 -120.146964 101 7688ft 126kts
29-Dec-17 18:12 35.019412 -120.104229 95 7686ft 130kts
29-Dec-17 18:13 35.014334 -120.059640 114 7532ft 127kts
29-Dec-17 18:14 35.004624 -120.017570 103 7557ft 129kts
29-Dec-17 18:15 34.999817 -119.984912 100 7528ft 130kts
29-Dec-17 18:16 34.995090 -119.941697 97 7536ft 135kts
29-Dec-17 18:17 34.986945 -119.896996 103 7373ft 132kts
29-Dec-17 18:18 34.979964 -119.854957 105 7467ft 130kts
29-Dec-17 18:19 34.975900 -119.832233 103 7506ft 135kts
29-Dec-17 18:20 34.971797 -119.788124 91 6905ft 118kts
29-Dec-17 18:21 34.968881 -119.750569 102 5931ft 118kts
29-Dec-17 18:22 34.961357 -119.711540 106 4539ft 101kts
29-Dec-17 18:23 34.956313 -119.686190 101 4093ft 65kts
29-Dec-17 18:24 34.953703 -119.664714 97 3690ft 68kts
29-Dec-17 18:25 34.944571 -119.647643 196 3370ft 69kts
29-Dec-17 18:26 34.934922 -119.667035 238 2783ft 75kts
29-Dec-17 18:27 34.936206 -119.685140 294 2208ft 32kts
29-Dec-17 18:28 34.938976 -119.692383 295 2206ft 29kts
29-Dec-17 18:29 34.939886 -119.693605 22 2206ft 0kts
29-Dec-17 18:30 34.939886 -119.693605 22 2206ft 0kts
29-Dec-17 18:31 34.939886 -119.693605 22 2206ft 0kts

Navigation Log

Ident Type
Flight plan parsing failed, navigation log unavailable